Time;durP1;ratioP1;P1;durP2;ratioP2;P2;SDS_P1;SDS_P2;PMS_P1;PMS_P2;Temp;Humidity;BMP_temperature;BMP_pressure;BME280_temperature;BME280_humidity;BME280_pressure;Samples;Min_cycle;Max_cycle;Signal;HPM_P1;HPM_P2
2022/12/07 00:00:52;;;;;;;;;86.00;60.75;;;;;2.74;100.00;101952.94;5039262;28;45477;-77
2022/12/07 00:03:18;;;;;;;;;81.75;60.75;;;;;2.74;100.00;101958.31;5035066;28;45461;-76
2022/12/07 00:05:43;;;;;;;;;76.00;60.00;;;;;2.70;100.00;101962.09;5030784;28;45224;-77
2022/12/07 00:08:09;;;;;;;;;85.00;63.75;;;;;2.61;100.00;101962.50;5034921;28;45318;-77
2022/12/07 00:10:34;;;;;;;;;79.00;60.25;;;;;2.68;100.00;101955.91;5043512;28;45377;-77
2022/12/07 00:13:00;;;;;;;;;81.25;62.75;;;;;2.59;100.00;101954.50;5029034;28;46586;-77
2022/12/07 00:15:25;;;;;;;;;82.25;62.50;;;;;2.65;100.00;101956.91;5031811;28;45374;-77
2022/12/07 00:17:50;;;;;;;;;76.00;60.50;;;;;2.76;100.00;101961.81;5032129;28;45334;-77
2022/12/07 00:20:16;;;;;;;;;84.75;61.75;;;;;2.83;100.00;101957.91;5039352;28;45533;-77
2022/12/07 00:22:41;;;;;;;;;78.50;59.50;;;;;2.87;100.00;101953.25;5036728;28;45677;-76
2022/12/07 00:25:06;;;;;;;;;80.00;62.00;;;;;2.89;100.00;101952.25;5042792;28;45390;-77
2022/12/07 00:27:32;;;;;;;;;82.00;63.00;;;;;2.90;100.00;101953.13;5041261;28;45390;-76
2022/12/07 00:29:57;;;;;;;;;87.00;64.50;;;;;2.92;100.00;101957.47;5037114;28;45362;-77
2022/12/07 00:32:23;;;;;;;;;90.25;62.75;;;;;2.87;100.00;101948.75;5036709;28;46166;-76
2022/12/07 00:34:48;;;;;;;;;84.50;63.00;;;;;2.82;100.00;101942.75;5039969;28;45449;-77
2022/12/07 00:37:13;;;;;;;;;89.25;68.25;;;;;2.82;100.00;101939.19;5042056;28;45429;-74
2022/12/07 00:39:39;;;;;;;;;61.75;43.50;;;;;2.83;100.00;101943.63;5040706;28;45706;-77
2022/12/07 00:42:04;;;;;;;;;83.50;62.75;;;;;2.88;100.00;101937.09;5035673;28;46526;-77
2022/12/07 00:44:29;;;;;;;;;85.50;63.00;;;;;3.01;100.00;101940.94;5039071;28;45887;-77
2022/12/07 00:46:55;;;;;;;;;82.75;61.25;;;;;2.99;100.00;101939.28;5033793;28;45430;-77
2022/12/07 00:49:21;;;;;;;;;82.75;63.50;;;;;3.08;100.00;101942.41;5039249;28;45358;-77
2022/12/07 00:51:48;;;;;;;;;82.25;64.00;;;;;3.10;100.00;101940.53;5034827;28;45470;-77
2022/12/07 00:54:14;;;;;;;;;86.25;61.00;;;;;3.09;100.00;101944.16;5036887;28;45237;-77
2022/12/07 00:56:39;;;;;;;;;67.50;54.00;;;;;3.00;100.00;101931.16;5034939;28;45388;-76
2022/12/07 00:59:05;;;;;;;;;83.75;61.75;;;;;3.13;100.00;101934.16;5042653;28;45379;-76
2022/12/07 01:01:33;;;;;;;;;85.75;62.00;;;;;3.17;100.00;101934.84;5041205;28;47943;-76
2022/12/07 01:04:01;;;;;;;;;82.75;62.50;;;;;3.17;100.00;101932.16;5041923;28;45359;-75
2022/12/07 01:06:27;;;;;;;;;86.00;64.25;;;;;3.15;100.00;101916.13;5036827;28;45524;-76
2022/12/07 01:08:52;;;;;;;;;78.75;58.50;;;;;3.07;100.00;101932.59;5035912;28;45481;-76
2022/12/07 01:11:25;;;;;;;;;76.50;61.50;;;;;3.16;100.00;101938.47;5038514;28;45414;-77
2022/12/07 01:13:52;;;;;;;;;83.50;63.50;;;;;3.25;100.00;101927.31;5042306;28;44766;-76
2022/12/07 01:16:19;;;;;;;;;86.50;64.25;;;;;3.16;100.00;101927.75;5040548;28;45374;-76
2022/12/07 01:18:47;;;;;;;;;82.75;63.25;;;;;3.10;100.00;101924.41;5038602;28;45430;-76
2022/12/07 01:21:15;;;;;;;;;81.50;61.75;;;;;3.03;100.00;101928.31;5030259;28;48212;-76
2022/12/07 01:23:41;;;;;;;;;85.25;64.25;;;;;2.95;100.00;101919.75;5036304;28;45257;-77
2022/12/07 01:26:12;;;;;;;;;83.50;62.25;;;;;2.94;100.00;101927.88;5026879;28;45343;-76
2022/12/07 01:28:38;;;;;;;;;71.25;56.75;;;;;2.96;100.00;101920.63;5034257;28;45456;-76
2022/12/07 01:31:07;;;;;;;;;84.25;61.75;;;;;2.97;100.00;101925.06;5030093;28;46115;-76
2022/12/07 01:33:35;;;;;;;;;79.25;61.00;;;;;3.05;100.00;101925.56;5038705;28;45353;-76
2022/12/07 01:36:06;;;;;;;;;82.25;60.50;;;;;3.09;100.00;101925.34;5035111;28;45457;-76
2022/12/07 01:38:32;;;;;;;;;83.50;62.75;;;;;2.92;100.00;101930.63;5036076;28;45420;-76
2022/12/07 01:40:59;;;;;;;;;83.50;63.00;;;;;2.90;100.00;101927.16;5035638;28;45335;-76
2022/12/07 01:43:27;;;;;;;;;75.25;58.50;;;;;2.68;100.00;101926.41;5041392;28;45797;-76
2022/12/07 01:45:52;;;;;;;;;76.50;56.25;;;;;2.72;100.00;101922.63;5039098;28;45350;-76
2022/12/07 01:48:22;;;;;;;;;76.25;59.25;;;;;2.67;100.00;101913.91;5039209;28;45670;-76
2022/12/07 01:50:51;;;;;;;;;84.75;61.25;;;;;2.58;100.00;101922.38;5035898;28;45410;-76
2022/12/07 01:53:17;;;;;;;;;83.50;59.75;;;;;2.50;100.00;101924.53;5033510;28;45257;-76
2022/12/07 01:55:49;;;;;;;;;73.25;58.50;;;;;2.54;100.00;101912.72;5038696;28;45649;-77
2022/12/07 01:58:16;;;;;;;;;75.50;55.00;;;;;2.44;100.00;101903.34;5040574;28;45405;-76
2022/12/07 02:00:42;;;;;;;;;74.50;56.75;;;;;2.53;100.00;101916.34;5031142;28;46462;-77
2022/12/07 02:03:15;;;;;;;;;78.00;59.50;;;;;2.57;100.00;101917.94;5031494;28;45459;-76
2022/12/07 02:05:42;;;;;;;;;74.75;53.00;;;;;2.53;100.00;101911.00;5038134;28;45469;-76
2022/12/07 02:08:10;;;;;;;;;67.75;54.00;;;;;2.43;100.00;101909.66;5038899;28;45386;-75
2022/12/07 02:10:35;;;;;;;;;82.00;57.00;;;;;2.56;100.00;101917.06;5024347;28;46936;-75
2022/12/07 02:13:08;;;;;;;;;73.50;55.25;;;;;2.62;100.00;101911.47;5039334;28;45261;-76
2022/12/07 02:15:45;;;;;;;;;72.75;56.50;;;;;2.58;100.00;101919.69;5038560;28;45432;-76
2022/12/07 02:18:31;;;;;;;;;74.00;57.00;;;;;2.65;100.00;101913.97;5032248;28;45309;-76
2022/12/07 02:21:11;;;;;;;;;77.75;59.00;;;;;2.59;100.00;101916.94;5033132;28;46164;-76
2022/12/07 02:24:01;;;;;;;;;76.75;56.75;;;;;2.59;100.00;101916.06;5039105;28;45420;-76
2022/12/07 02:26:44;;;;;;;;;73.25;56.50;;;;;2.55;100.00;101915.34;5040422;28;45298;-76
2022/12/07 02:29:20;;;;;;;;;67.50;51.25;;;;;2.48;100.00;101918.38;5040533;28;45492;-76
2022/12/07 02:32:15;;;;;;;;;71.50;55.75;;;;;2.44;100.00;101911.41;5038990;28;47209;-76
2022/12/07 02:35:06;;;;;;;;;73.00;55.25;;;;;2.54;100.00;101908.25;5039669;28;45279;-76
2022/12/07 02:37:42;;;;;;;;;74.75;53.75;;;;;2.59;100.00;101916.06;5034666;28;45485;-75
2022/12/07 02:40:23;;;;;;;;;68.50;52.75;;;;;2.60;100.00;101912.44;5036658;28;45352;-76
2022/12/07 02:43:00;;;;;;;;;73.75;52.50;;;;;2.64;100.00;101914.03;5034149;28;47418;-75
2022/12/07 02:45:29;;;;;;;;;59.50;47.00;;;;;2.63;100.00;101913.16;5037177;28;45271;-75
2022/12/07 02:47:59;;;;;;;;;63.75;51.00;;;;;2.60;100.00;101915.13;5036440;28;45406;-76
2022/12/07 02:50:24;;;;;;;;;69.25;53.50;;;;;2.53;100.00;101916.34;5035068;28;45496;-75
2022/12/07 02:52:49;;;;;;;;;76.50;56.75;;;;;2.38;100.00;101895.56;5033200;28;46663;-75
2022/12/07 02:55:20;;;;;;;;;66.75;52.25;;;;;2.41;100.00;101901.66;5029462;28;45700;-75
2022/12/07 02:58:03;;;;;;;;;69.00;52.00;;;;;2.29;100.00;101889.69;5030540;28;45477;-75
2022/12/07 03:00:36;;;;;;;;;66.50;50.50;;;;;2.27;100.00;101896.03;5037189;28;45401;-74
2022/12/07 03:03:10;;;;;;;;;72.00;51.75;;;;;2.30;100.00;101891.44;5037892;28;47272;-76
2022/12/07 03:06:20;;;;;;;;;74.50;53.00;;;;;2.20;100.00;101900.81;5043310;28;45393;-76
2022/12/07 03:09:25;;;;;;;;;77.25;53.00;;;;;2.16;100.00;101901.88;5043767;28;45268;-76
2022/12/07 03:12:00;;;;;;;;;64.25;48.25;;;;;2.09;100.00;101905.78;5034106;28;45350;-76
2022/12/07 03:14:40;;;;;;;;;74.50;54.00;;;;;2.12;100.00;101894.06;5028472;28;45585;-76
2022/12/07 03:17:14;;;;;;;;;70.75;53.50;;;;;2.20;100.00;101907.97;5031766;28;45461;-76
2022/12/07 03:19:42;;;;;;;;;77.50;53.75;;;;;2.26;100.00;101908.59;5043587;28;45332;-75
2022/12/07 03:22:12;;;;;;;;;51.25;39.50;;;;;2.24;100.00;101897.06;5042168;28;45400;-76
2022/12/07 03:24:52;;;;;;;;;77.75;55.25;;;;;2.10;100.00;101896.78;5031287;28;46359;-75
2022/12/07 03:27:40;;;;;;;;;64.25;42.50;;;;;2.04;100.00;101881.00;5043016;28;45398;-75
2022/12/07 03:30:35;;;;;;;;;70.75;48.25;;;;;1.99;100.00;101887.47;5037163;28;45275;-76
2022/12/07 03:33:12;;;;;;;;;65.75;49.75;;;;;2.02;100.00;101876.63;5050585;28;45648;-76
2022/12/07 03:35:43;;;;;;;;;66.00;48.00;;;;;2.08;100.00;101887.94;5034017;28;46282;-76
2022/12/07 03:38:18;;;;;;;;;66.50;46.25;;;;;2.12;100.00;101894.06;5041054;28;45703;-76
2022/12/07 03:41:00;;;;;;;;;68.50;45.50;;;;;2.21;100.00;101889.16;5036586;28;45391;-76
2022/12/07 03:43:28;;;;;;;;;61.25;45.50;;;;;2.20;100.00;101886.53;5039495;28;45458;-76
2022/12/07 03:46:29;;;;;;;;;66.50;49.25;;;;;2.06;100.00;101887.13;5038073;28;47236;-76
2022/12/07 03:49:36;;;;;;;;;58.00;44.00;;;;;2.12;100.00;101883.34;5035121;28;45835;-75
2022/12/07 03:52:30;;;;;;;;;52.75;44.00;;;;;2.13;100.00;101877.88;5024470;28;45502;-75
2022/12/07 03:55:10;;;;;;;;;67.75;48.50;;;;;2.03;100.00;101878.38;5030736;28;45533;-75
2022/12/07 03:57:39;;;;;;;;;61.50;46.25;;;;;2.05;100.00;101881.81;5039997;28;45777;-75
2022/12/07 04:00:07;;;;;;;;;60.25;43.25;;;;;2.01;100.00;101880.22;5039875;28;46040;-76
2022/12/07 04:02:34;;;;;;;;;64.75;45.25;;;;;2.07;100.00;101870.13;5036051;28;45485;-75
2022/12/07 04:05:01;;;;;;;;;63.50;42.00;;;;;1.99;100.00;101863.34;5039840;28;45460;-76
2022/12/07 04:07:26;;;;;;;;;56.00;42.75;;;;;2.05;100.00;101877.34;5036991;28;45436;-77
2022/12/07 04:09:51;;;;;;;;;68.00;45.00;;;;;2.13;100.00;101885.91;5034213;28;45251;-74
2022/12/07 04:12:17;;;;;;;;;64.00;44.00;;;;;1.98;100.00;101885.72;5038077;28;45429;-75
2022/12/07 04:14:42;;;;;;;;;53.75;45.00;;;;;1.93;100.00;101868.03;5042977;28;45307;-75
2022/12/07 04:17:08;;;;;;;;;42.75;37.50;;;;;1.95;100.00;101870.66;5038582;28;45417;-75
2022/12/07 04:19:34;;;;;;;;;58.75;44.50;;;;;2.02;100.00;101876.63;5037685;28;45365;-75
2022/12/07 04:22:01;;;;;;;;;51.25;42.75;;;;;2.02;100.00;101884.66;5040926;28;45463;-76
2022/12/07 04:24:27;;;;;;;;;59.75;47.25;;;;;2.03;100.00;101873.88;5033152;28;45401;-75
2022/12/07 04:26:53;;;;;;;;;56.50;47.00;;;;;2.00;100.00;101873.13;5030653;28;46898;-74
2022/12/07 04:29:19;;;;;;;;;62.00;46.50;;;;;2.01;100.00;101875.75;5041697;28;45375;-77
2022/12/07 04:31:45;;;;;;;;;56.50;46.50;;;;;1.98;100.00;101870.50;5030490;28;45470;-76
2022/12/07 04:34:11;;;;;;;;;45.00;41.50;;;;;2.06;100.00;101879.09;5042685;28;45451;-75
2022/12/07 04:36:37;;;;;;;;;50.50;41.25;;;;;2.07;100.00;101875.47;5032629;28;46420;-75
2022/12/07 04:39:04;;;;;;;;;58.75;43.00;;;;;1.94;100.00;101863.56;5042953;28;45345;-75
2022/12/07 04:41:29;;;;;;;;;69.00;48.75;;;;;1.96;100.00;101856.31;5035446;28;45200;-75
2022/12/07 04:44:02;;;;;;;;;54.75;41.00;;;;;1.95;100.00;101863.50;5036086;28;45410;-75
2022/12/07 04:46:29;;;;;;;;;49.25;37.25;;;;;1.98;100.00;101869.63;5041532;28;47333;-75
2022/12/07 04:48:56;;;;;;;;;38.50;32.75;;;;;1.90;100.00;101862.78;5037601;28;45473;-77
2022/12/07 04:51:27;;;;;;;;;44.50;43.50;;;;;1.96;100.00;101861.69;5041652;28;45396;-75
2022/12/07 04:53:54;;;;;;;;;50.25;40.50;;;;;2.02;100.00;101866.78;5030113;28;45404;-75
2022/12/07 04:56:20;;;;;;;;;54.25;41.75;;;;;2.15;100.00;101859.94;5037411;28;48100;-76
2022/12/07 04:58:47;;;;;;;;;66.00;48.50;;;;;2.22;100.00;101863.19;5041969;28;45547;-76
2022/12/07 05:01:14;;;;;;;;;47.75;40.00;;;;;2.26;100.00;101868.38;5030280;28;45650;-76
2022/12/07 05:03:40;;;;;;;;;60.75;47.50;;;;;2.28;100.00;101866.47;5033987;28;45470;-76
2022/12/07 05:06:06;;;;;;;;;46.50;42.25;;;;;2.19;100.00;101853.47;5032868;28;46015;-76
2022/12/07 05:08:33;;;;;;;;;57.00;47.00;;;;;2.21;100.00;101864.13;5038357;28;45356;-76
2022/12/07 05:10:59;;;;;;;;;60.50;49.00;;;;;2.26;100.00;101875.56;5032180;28;45350;-76
2022/12/07 05:13:24;;;;;;;;;54.25;44.00;;;;;2.24;100.00;101872.06;5031497;28;45529;-76
2022/12/07 05:15:50;;;;;;;;;52.25;41.75;;;;;2.25;100.00;101863.09;5033639;28;46453;-76
2022/12/07 05:18:16;;;;;;;;;55.50;44.25;;;;;2.34;100.00;101863.53;5033564;28;45247;-76
2022/12/07 05:20:42;;;;;;;;;51.75;41.00;;;;;2.37;100.00;101851.78;5040169;28;45510;-75
2022/12/07 05:23:08;;;;;;;;;52.00;43.25;;;;;2.46;100.00;101850.50;5038073;28;45561;-76
2022/12/07 05:25:33;;;;;;;;;55.75;42.75;;;;;2.57;100.00;101866.97;5044013;28;45438;-76
2022/12/07 05:27:58;;;;;;;;;56.75;43.00;;;;;2.64;100.00;101877.34;5036697;28;45418;-77
2022/12/07 05:30:25;;;;;;;;;38.00;32.75;;;;;2.68;100.00;101870.06;5041355;28;45433;-77
2022/12/07 05:32:50;;;;;;;;;55.00;41.75;;;;;2.77;100.00;101875.00;5042037;28;45291;-77
2022/12/07 05:35:17;;;;;;;;;52.25;42.50;;;;;2.80;100.00;101869.47;5034451;28;46832;-75
2022/12/07 05:37:42;;;;;;;;;45.75;40.50;;;;;2.73;100.00;101870.69;5038154;28;45303;-77
2022/12/07 05:40:09;;;;;;;;;47.50;40.00;;;;;2.56;100.00;101868.78;5041359;28;45266;-77
2022/12/07 05:42:34;;;;;;;;;40.00;35.50;;;;;2.49;100.00;101867.31;5020819;28;45309;-76
2022/12/07 05:45:00;;;;;;;;;48.25;41.25;;;;;2.52;100.00;101871.69;5049120;28;47154;-76
2022/12/07 05:47:25;;;;;;;;;45.75;42.50;;;;;2.61;100.00;101871.28;5034539;28;45457;-76
2022/12/07 05:49:50;;;;;;;;;50.75;43.00;;;;;2.59;100.00;101862.41;5027501;28;45546;-76
2022/12/07 05:52:16;;;;;;;;;46.50;40.50;;;;;2.64;100.00;101863.06;5034773;28;45521;-76
2022/12/07 05:54:41;;;;;;;;;58.00;41.50;;;;;2.75;100.00;101868.81;5028551;28;46482;-76
2022/12/07 05:57:07;;;;;;;;;49.00;40.25;;;;;2.66;100.00;101866.56;5034950;28;46111;-76
2022/12/07 05:59:32;;;;;;;;;47.50;40.75;;;;;2.61;100.00;101860.53;5027202;28;45294;-76
2022/12/07 06:02:05;;;;;;;;;55.25;43.25;;;;;2.59;100.00;101862.41;5030609;28;45465;-76
2022/12/07 06:04:34;;;;;;;;;47.50;41.00;;;;;2.54;100.00;101864.44;5033318;28;47084;-76
2022/12/07 06:07:00;;;;;;;;;54.00;41.25;;;;;2.53;100.00;101863.56;5032602;28;45464;-75
2022/12/07 06:09:27;;;;;;;;;50.75;40.75;;;;;2.60;100.00;101865.03;5032209;28;45264;-75
2022/12/07 06:14:37;;;;;;;;;49.00;41.75;;;;;2.58;100.00;101861.53;5024200;28;45450;-76
2022/12/07 06:17:03;;;;;;;;;43.00;31.00;;;;;2.58;100.00;101852.63;5035267;28;45356;-75
2022/12/07 06:19:29;;;;;;;;;39.00;36.50;;;;;2.56;100.00;101858.06;5034365;28;45437;-74
2022/12/07 06:21:55;;;;;;;;;53.25;43.25;;;;;2.56;100.00;101857.19;5055363;28;45242;-78
2022/12/07 06:24:20;;;;;;;;;43.50;36.00;;;;;2.63;100.00;101869.41;5039832;28;46976;-76
2022/12/07 06:26:46;;;;;;;;;45.25;34.25;;;;;2.74;100.00;101867.94;5025898;28;45324;-75
2022/12/07 06:29:12;;;;;;;;;50.75;43.75;;;;;2.76;100.00;101853.59;5038576;28;45398;-75
2022/12/07 06:31:38;;;;;;;;;46.75;39.50;;;;;2.57;100.00;101853.56;5030095;28;45280;-75
2022/12/07 06:34:06;;;;;;;;;46.00;39.50;;;;;2.70;100.00;101860.13;5039293;28;46751;-76
2022/12/07 06:36:33;;;;;;;;;45.00;36.75;;;;;2.71;100.00;101869.88;5030518;28;45272;-75
2022/12/07 06:38:58;;;;;;;;;46.75;39.25;;;;;2.56;100.00;101867.91;5042689;28;45446;-77
2022/12/07 06:41:24;;;;;;;;;59.25;44.25;;;;;2.64;100.00;101868.44;5036829;28;45616;-77
2022/12/07 06:43:49;;;;;;;;;48.25;41.50;;;;;2.61;100.00;101861.41;5040598;28;47788;-76
2022/12/07 06:46:16;;;;;;;;;51.75;42.75;;;;;2.55;100.00;101871.56;5043625;28;45454;-76
2022/12/07 06:48:42;;;;;;;;;55.25;41.00;;;;;2.64;100.00;101868.44;5040912;28;45437;-76
2022/12/07 06:51:08;;;;;;;;;60.25;45.00;;;;;2.77;100.00;101875.00;5027394;28;45426;-76
2022/12/07 06:53:33;;;;;;;;;46.00;40.25;;;;;2.76;100.00;101865.19;5034641;28;45461;-79
2022/12/07 06:55:59;;;;;;;;;51.25;45.50;;;;;2.71;100.00;101867.22;5027567;28;45364;-75
2022/12/07 06:58:24;;;;;;;;;43.75;33.25;;;;;2.73;100.00;101871.56;5035231;28;45484;-76
2022/12/07 07:00:51;;;;;;;;;54.25;45.50;;;;;2.77;100.00;101860.72;5031426;28;45419;-76
2022/12/07 07:03:17;;;;;;;;;60.00;49.00;;;;;2.75;100.00;101868.81;5033138;28;45481;-76
2022/12/07 07:05:43;;;;;;;;;53.25;44.00;;;;;2.71;100.00;101851.97;5035475;28;45328;-78
2022/12/07 07:08:09;;;;;;;;;61.75;45.75;;;;;2.80;100.00;101858.75;5035739;28;45188;-76
2022/12/07 07:10:35;;;;;;;;;60.75;47.25;;;;;2.98;100.00;101860.56;5040902;28;45183;-76
2022/12/07 07:13:01;;;;;;;;;65.50;49.00;;;;;2.93;100.00;101851.84;5032511;28;46466;-78
2022/12/07 07:15:26;;;;;;;;;58.00;44.25;;;;;2.98;100.00;101870.44;5030343;28;45212;-78
2022/12/07 07:17:52;;;;;;;;;62.25;42.75;;;;;3.02;100.00;101863.97;5033762;28;45506;-77
2022/12/07 07:20:17;;;;;;;;;54.75;43.00;;;;;2.89;100.00;101860.13;5041050;28;45310;-77
2022/12/07 07:22:43;;;;;;;;;60.25;43.50;;;;;2.95;100.00;101866.06;5041244;28;45505;-76
2022/12/07 07:25:08;;;;;;;;;60.00;44.25;;;;;3.02;100.00;101872.88;5042136;28;45268;-76
2022/12/07 07:27:34;;;;;;;;;60.25;44.00;;;;;3.06;100.00;101874.50;5042622;28;45394;-77
2022/12/07 07:29:59;;;;;;;;;62.50;47.50;;;;;3.01;100.00;101864.91;5036565;28;45362;-77
2022/12/07 07:32:24;;;;;;;;;58.00;48.75;;;;;3.07;100.00;101870.84;5041206;28;46857;-76
2022/12/07 07:34:50;;;;;;;;;55.75;47.00;;;;;3.01;100.00;101864.91;5039167;28;45345;-76
2022/12/07 07:37:15;;;;;;;;;55.50;43.75;;;;;3.03;100.00;101871.06;5024924;28;45375;-78
2022/12/07 07:39:40;;;;;;;;;46.25;43.75;;;;;3.02;100.00;101872.00;5042521;28;45390;-78
2022/12/07 07:42:07;;;;;;;;;60.25;47.00;;;;;2.96;100.00;101867.81;5033591;28;45336;-77
2022/12/07 07:44:33;;;;;;;;;57.75;47.50;;;;;3.03;100.00;101866.56;5037473;28;45252;-74
2022/12/07 07:46:59;;;;;;;;;58.50;44.00;;;;;2.87;100.00;101878.97;5040666;28;45413;-77
2022/12/07 07:49:25;;;;;;;;;60.50;46.25;;;;;2.83;100.00;101861.28;5028099;28;45470;-77
2022/12/07 07:51:50;;;;;;;;;59.75;45.25;;;;;2.93;100.00;101867.06;5030769;28;45487;-76
2022/12/07 07:54:16;;;;;;;;;61.00;47.25;;;;;2.93;100.00;101867.06;5038329;28;45811;-77
2022/12/07 07:56:41;;;;;;;;;62.00;47.50;;;;;3.01;100.00;101871.13;5031945;28;45423;-77
2022/12/07 07:59:06;;;;;;;;;62.50;48.25;;;;;3.06;100.00;101871.81;5032634;28;45706;-77
2022/12/07 08:01:32;;;;;;;;;47.00;41.25;;;;;2.96;100.00;101880.38;5031939;28;45417;-78
2022/12/07 08:03:57;;;;;;;;;60.50;45.25;;;;;2.94;100.00;101875.06;5033378;28;45370;-77
2022/12/07 08:06:22;;;;;;;;;55.25;45.75;;;;;3.05;100.00;101886.19;5033641;28;45303;-77
2022/12/07 08:08:48;;;;;;;;;51.00;42.25;;;;;3.07;100.00;101883.41;5027124;28;45699;-75
2022/12/07 08:11:13;;;;;;;;;60.25;45.75;;;;;3.02;100.00;101877.38;5033475;28;45440;-75
2022/12/07 08:13:38;;;;;;;;;48.00;40.25;;;;;2.97;100.00;101874.94;5029531;28;45481;-78
2022/12/07 08:16:06;;;;;;;;;59.50;43.75;;;;;3.02;100.00;101883.63;5034609;28;45473;-77
2022/12/07 08:18:36;;;;;;;;;49.50;39.75;;;;;3.12;100.00;101879.56;5040632;28;45641;-77
2022/12/07 08:21:03;;;;;;;;;55.25;39.25;;;;;3.28;100.00;101884.22;5041493;28;45572;-76
2022/12/07 08:23:29;;;;;;;;;49.25;39.50;;;;;3.36;100.00;101884.72;5038101;28;45373;-75
2022/12/07 08:25:54;;;;;;;;;56.50;43.25;;;;;3.48;100.00;101897.53;5023567;28;45316;-76
2022/12/07 08:28:20;;;;;;;;;59.75;42.50;;;;;3.46;100.00;101894.03;5038421;28;45564;-78
2022/12/07 08:30:45;;;;;;;;;51.25;43.50;;;;;3.34;100.00;101902.72;5024948;28;46406;-76
2022/12/07 08:33:11;;;;;;;;;60.75;44.25;;;;;3.32;100.00;101894.72;5024620;28;45265;-76
2022/12/07 08:35:36;;;;;;;;;57.00;46.25;;;;;3.32;100.00;101896.53;5033887;28;45275;-76
2022/12/07 08:38:02;;;;;;;;;50.75;35.50;;;;;3.30;100.00;101893.03;5039887;28;45459;-75
2022/12/07 08:40:28;;;;;;;;;54.75;47.25;;;;;3.43;100.00;101899.59;5034479;28;47070;-74
2022/12/07 08:42:53;;;;;;;;;58.75;44.00;;;;;3.42;100.00;101897.84;5040071;28;45730;-76
2022/12/07 08:45:21;;;;;;;;;54.00;41.75;;;;;3.44;100.00;101895.91;5036847;28;45557;-76
2022/12/07 08:48:11;;;;;;;;;59.25;44.00;;;;;3.50;100.00;101901.91;5030482;28;45655;-77
2022/12/07 08:50:37;;;;;;;;;51.75;42.50;;;;;3.52;100.00;101893.72;5024359;28;46195;-76
2022/12/07 08:53:06;;;;;;;;;58.50;41.75;;;;;3.60;100.00;101904.97;5031376;28;45385;-75
2022/12/07 08:55:33;;;;;;;;;61.75;46.25;;;;;3.61;100.00;101903.16;5040234;28;45806;-78
2022/12/07 08:57:59;;;;;;;;;56.25;42.00;;;;;3.66;100.00;101895.72;5036392;28;45539;-79
2022/12/07 09:00:26;;;;;;;;;65.75;49.50;;;;;3.65;100.00;101900.28;5027368;28;46786;-79
2022/12/07 09:02:51;;;;;;;;;53.50;47.00;;;;;3.74;100.00;101891.72;5031146;28;45382;-76
2022/12/07 09:05:16;;;;;;;;;74.00;51.50;;;;;3.79;100.00;101892.38;5023412;28;45838;-77
2022/12/07 09:07:44;;;;;;;;;64.50;47.50;;;;;3.87;100.00;101894.69;5034013;28;45461;-77
2022/12/07 09:10:10;;;;;;;;;60.25;48.25;;;;;4.00;100.00;101890.41;5038399;28;45548;-77
2022/12/07 09:12:35;;;;;;;;;65.00;50.75;;;;;4.03;100.00;101889.38;5036963;28;45623;-78
2022/12/07 09:15:01;;;;;;;;;64.50;49.75;;;;;4.01;100.00;101888.59;5038838;28;45391;-77
2022/12/07 09:17:26;;;;;;;;;71.50;51.00;;;;;4.02;100.00;101893.88;5030012;28;45557;-77
2022/12/07 09:19:52;;;;;;;;;62.75;50.50;;;;;4.15;100.00;101895.00;5027720;28;45456;-77
2022/12/07 09:22:17;;;;;;;;;65.00;50.25;;;;;4.31;100.00;101890.53;5031408;28;45557;-77
2022/12/07 09:24:45;;;;;;;;;63.75;46.25;;;;;4.32;100.00;101876.16;5028596;28;45392;-77
2022/12/07 09:27:10;;;;;;;;;62.75;46.50;;;;;4.55;100.00;101896.44;5040329;28;45357;-78
2022/12/07 09:29:36;;;;;;;;;60.00;47.50;;;;;4.59;100.00;101889.09;5029440;28;45265;-77
2022/12/07 09:32:02;;;;;;;;;59.50;48.75;;;;;4.55;100.00;101865.97;5038160;28;45409;-77
2022/12/07 09:34:30;;;;;;;;;39.75;38.25;;;;;4.47;100.00;101887.91;5040325;28;45426;-77
2022/12/07 09:36:56;;;;;;;;;54.50;43.00;;;;;4.37;100.00;101878.63;5040713;28;45548;-77
2022/12/07 09:39:22;;;;;;;;;59.25;43.00;;;;;4.34;100.00;101884.16;5032558;28;46268;-78
2022/12/07 09:41:47;;;;;;;;;73.25;50.75;;;;;4.22;100.00;101892.88;5038686;28;45392;-79
2022/12/07 09:44:20;;;;;;;;;54.00;39.00;;;;;4.20;100.00;101886.69;5034531;28;45346;-77
2022/12/07 09:46:46;;;;;;;;;62.00;49.00;;;;;4.22;100.00;101888.34;5039983;28;45531;-77
2022/12/07 09:49:24;;;;;;;;;59.25;46.75;;;;;4.25;100.00;101890.00;5041294;28;47521;-76
2022/12/07 09:52:01;;;;;;;;;51.50;41.50;;;;;4.47;100.00;101887.91;5040764;28;45502;-76
2022/12/07 09:54:30;;;;;;;;;68.50;51.25;;;;;4.55;100.00;101888.38;5035443;28;45333;-77
2022/12/07 09:56:55;;;;;;;;;64.75;49.50;;;;;4.66;100.00;101883.31;5032915;28;45467;-77
2022/12/07 09:59:21;;;;;;;;;69.75;52.75;;;;;4.62;100.00;101883.53;5029096;28;45300;-79
2022/12/07 10:01:49;;;;;;;;;62.25;49.25;;;;;4.70;100.00;101876.78;5015099;28;45368;-78
2022/12/07 10:04:24;;;;;;;;;62.25;48.50;;;;;4.63;100.00;101879.91;5030762;28;45435;-78
2022/12/07 10:06:53;;;;;;;;;61.75;49.50;;;;;4.64;100.00;101879.81;5033143;28;45564;-76
2022/12/07 10:09:21;;;;;;;;;58.00;44.25;;;;;4.61;100.00;101873.72;5037056;28;46632;-77
2022/12/07 10:12:09;;;;;;;;;61.75;47.50;;;;;4.53;100.00;101871.44;5033974;28;45393;-77
2022/12/07 10:14:37;;;;;;;;;48.50;35.50;;;;;4.58;100.00;101877.47;5025126;28;45542;-77
2022/12/07 10:17:28;;;;;;;;;70.75;51.75;;;;;4.58;100.00;101882.84;5038198;28;45575;-77
2022/12/07 10:20:19;;;;;;;;;59.25;42.25;;;;;4.55;100.00;101874.06;5038776;28;46404;-77
2022/12/07 10:23:13;;;;;;;;;65.50;51.25;;;;;4.58;100.00;101866.69;5039438;28;45385;-78
2022/12/07 10:25:40;;;;;;;;;62.50;47.25;;;;;4.62;100.00;101859.31;5031522;28;45394;-79
2022/12/07 10:28:12;;;;;;;;;57.00;39.75;;;;;4.72;100.00;101863.25;5037056;28;45595;-79
2022/12/07 10:30:49;;;;;;;;;63.75;49.00;;;;;4.74;100.00;101857.78;5024558;28;45947;-78
2022/12/07 10:33:28;;;;;;;;;70.50;56.25;;;;;4.87;100.00;101866.94;5036826;28;45303;-77
2022/12/07 10:35:54;;;;;;;;;55.75;47.25;;;;;5.01;100.00;101857.13;5031999;28;45335;-77
2022/12/07 10:38:20;;;;;;;;;68.00;54.50;;;;;5.00;100.00;101851.81;5038441;28;45728;-78
2022/12/07 10:40:45;;;;;;;;;68.50;51.50;;;;;5.04;100.00;101845.31;5034766;28;46224;-77
2022/12/07 10:43:13;;;;;;;;;66.00;49.25;;;;;5.19;100.00;101849.81;5038712;28;45423;-78
2022/12/07 10:46:25;;;;;;;;;71.25;55.75;;;;;5.25;100.00;101844.09;5036871;28;45458;-77
2022/12/07 10:49:12;;;;;;;;;62.75;50.25;;;;;5.31;100.00;101837.47;5026253;28;46280;-76
2022/12/07 10:52:09;;;;;;;;;69.00;55.50;;;;;5.30;100.00;101823.13;5031851;28;48086;-76
2022/12/07 10:54:50;;;;;;;;;65.25;54.25;;;;;5.45;100.00;101822.25;5033393;28;45286;-77
2022/12/07 10:57:47;;;;;;;;;68.50;52.00;;;;;5.43;100.00;101809.81;5031999;28;45530;-76
2022/12/07 11:00:24;;;;;;;;;70.25;51.50;;;;;5.58;100.00;101808.03;5029765;28;45756;-77
2022/12/07 11:03:14;;;;;;;;;70.25;55.75;;;;;5.77;100.00;101804.16;5029661;28;45814;-77
2022/12/07 11:06:02;;;;;;;;;69.50;53.00;;;;;5.78;100.00;101796.94;5032769;28;45232;-77
2022/12/07 11:08:46;;;;;;;;;76.00;55.00;;;;;5.84;100.00;101792.03;5026193;28;45390;-78
2022/12/07 11:11:20;;;;;;;;;65.25;51.50;;;;;5.94;100.00;101791.50;5031302;28;45231;-77
2022/12/07 11:14:01;;;;;;;;;71.25;56.50;;;;;5.75;100.00;101789.91;5035156;28;46511;-79
2022/12/07 11:16:39;;;;;;;;;60.75;49.25;;;;;5.90;100.00;101780.06;5032883;28;45424;-76
2022/12/07 11:19:19;;;;;;;;;68.00;51.75;;;;;6.01;100.00;101766.78;5035679;28;45497;-78
2022/12/07 11:22:05;;;;;;;;;70.00;53.50;;;;;6.11;100.00;101776.03;5039168;28;45615;-77
2022/12/07 11:24:46;;;;;;;;;69.50;54.75;;;;;5.98;100.00;101771.50;5032356;28;46387;-77